sensor_id;sensor_type;location;lat;lon;timestamp;pressure;altitude;pressure_sealevel;temperature;humidity
71970;BME280;59838;52.152;5.436;2022-12-31T00:00:03;100370.75;;;11.41;100.00
71970;BME280;59838;52.152;5.436;2022-12-31T00:02:30;100370.75;;;11.41;100.00
71970;BME280;59838;52.152;5.436;2022-12-31T00:04:57;100381.34;;;11.40;100.00
71970;BME280;59838;52.152;5.436;2022-12-31T00:07:23;100369.34;;;11.39;100.00
71970;BME280;59838;52.152;5.436;2022-12-31T00:09:50;100369.75;;;11.42;100.00
71970;BME280;59838;52.152;5.436;2022-12-31T00:12:16;100369.75;;;11.42;100.00
71970;BME280;59838;52.152;5.436;2022-12-31T00:14:42;100360.94;;;11.43;100.00
71970;BME280;59838;52.152;5.436;2022-12-31T00:17:09;100358.31;;;11.43;100.00
71970;BME280;59838;52.152;5.436;2022-12-31T00:19:36;100372.75;;;11.46;100.00
71970;BME280;59838;52.152;5.436;2022-12-31T00:22:02;100376.34;;;11.45;100.00
71970;BME280;59838;52.152;5.436;2022-12-31T00:24:29;100380.56;;;11.46;100.00
71970;BME280;59838;52.152;5.436;2022-12-31T00:26:56;100378.16;;;11.44;100.00
71970;BME280;59838;52.152;5.436;2022-12-31T00:29:23;100390.34;;;11.44;100.00
71970;BME280;59838;52.152;5.436;2022-12-31T00:31:49;100389.34;;;11.45;100.00
71970;BME280;59838;52.152;5.436;2022-12-31T00:34:15;100389.34;;;11.45;100.00
71970;BME280;59838;52.152;5.436;2022-12-31T00:36:42;100383.34;;;11.44;100.00
71970;BME280;59838;52.152;5.436;2022-12-31T00:39:11;100384.97;;;11.45;100.00
71970;BME280;59838;52.152;5.436;2022-12-31T00:41:38;100391.94;;;11.45;100.00
71970;BME280;59838;52.152;5.436;2022-12-31T00:44:05;100382.34;;;11.45;100.00
71970;BME280;59838;52.152;5.436;2022-12-31T00:46:31;100385.94;;;11.44;100.00
71970;BME280;59838;52.152;5.436;2022-12-31T00:48:58;100390.34;;;11.44;100.00
71970;BME280;59838;52.152;5.436;2022-12-31T00:51:25;100397.34;;;11.43;100.00
71970;BME280;59838;52.152;5.436;2022-12-31T00:53:55;100392.13;;;11.43;100.00
71970;BME280;59838;52.152;5.436;2022-12-31T00:56:27;100389.53;;;11.43;100.00
71970;BME280;59838;52.152;5.436;2022-12-31T00:58:54;100386.94;;;11.43;100.00
71970;BME280;59838;52.152;5.436;2022-12-31T01:01:22;100385.94;;;11.44;100.00
71970;BME280;59838;52.152;5.436;2022-12-31T01:03:52;100395.75;;;11.42;100.00
71970;BME280;59838;52.152;5.436;2022-12-31T01:06:19;100384.53;;;11.42;100.00
71970;BME280;59838;52.152;5.436;2022-12-31T01:08:49;100386.75;;;11.38;100.00
71970;BME280;59838;52.152;5.436;2022-12-31T01:11:17;100394.94;;;11.35;100.00
71970;BME280;59838;52.152;5.436;2022-12-31T01:13:55;100389.34;;;11.31;100.00
71970;BME280;59838;52.152;5.436;2022-12-31T01:16:40;100392.13;;;11.30;100.00
71970;BME280;59838;52.152;5.436;2022-12-31T01:19:10;100395.13;;;11.27;100.00
71970;BME280;59838;52.152;5.436;2022-12-31T01:21:39;100391.94;;;11.25;100.00
71970;BME280;59838;52.152;5.436;2022-12-31T01:24:06;100394.13;;;11.21;100.00
71970;BME280;59838;52.152;5.436;2022-12-31T01:26:33;100390.91;;;11.19;100.00
71970;BME280;59838;52.152;5.436;2022-12-31T01:29:00;100386.72;;;11.18;100.00
71970;BME280;59838;52.152;5.436;2022-12-31T01:31:26;100389.50;;;11.16;100.00
71970;BME280;59838;52.152;5.436;2022-12-31T01:33:53;100392.31;;;11.15;100.00
71970;BME280;59838;52.152;5.436;2022-12-31T01:36:26;100391.50;;;11.14;100.00
71970;BME280;59838;52.152;5.436;2022-12-31T01:38:54;100394.31;;;11.13;100.00
71970;BME280;59838;52.152;5.436;2022-12-31T01:41:24;100398.09;;;11.10;100.00
71970;BME280;59838;52.152;5.436;2022-12-31T01:43:59;100401.69;;;11.09;100.00
71970;BME280;59838;52.152;5.436;2022-12-31T01:49:03;100397.69;;;11.07;100.00
71970;BME280;59838;52.152;5.436;2022-12-31T01:51:34;100392.69;;;11.05;100.00
71970;BME280;59838;52.152;5.436;2022-12-31T01:54:04;100393.06;;;11.02;100.00
71970;BME280;59838;52.152;5.436;2022-12-31T01:56:32;100399.88;;;11.03;100.00
71970;BME280;59838;52.152;5.436;2022-12-31T01:59:00;100402.88;;;11.00;100.00
71970;BME280;59838;52.152;5.436;2022-12-31T02:01:31;100410.03;;;10.98;100.00
71970;BME280;59838;52.152;5.436;2022-12-31T02:04:08;100411.06;;;10.97;100.00
71970;BME280;59838;52.152;5.436;2022-12-31T02:06:40;100417.66;;;11.00;100.00
71970;BME280;59838;52.152;5.436;2022-12-31T02:09:09;100413.47;;;10.98;100.00
71970;BME280;59838;52.152;5.436;2022-12-31T02:11:36;100412.44;;;11.00;100.00
71970;BME280;59838;52.152;5.436;2022-12-31T02:14:07;100398.47;;;11.01;100.00
71970;BME280;59838;52.152;5.436;2022-12-31T02:16:59;100390.06;;;10.98;100.00
71970;BME280;59838;52.152;5.436;2022-12-31T02:19:55;100381.44;;;10.98;100.00
71970;BME280;59838;52.152;5.436;2022-12-31T02:23:09;100384.88;;;10.98;100.00
71970;BME280;59838;52.152;5.436;2022-12-31T02:31:37;100373.06;;;10.96;100.00
71970;BME280;59838;52.152;5.436;2022-12-31T02:34:12;100361.88;;;10.95;100.00
71970;BME280;59838;52.152;5.436;2022-12-31T02:36:45;100359.28;;;10.95;100.00
71970;BME280;59838;52.152;5.436;2022-12-31T02:39:13;100357.47;;;10.96;100.00
71970;BME280;59838;52.152;5.436;2022-12-31T02:41:40;100363.47;;;10.96;100.00
71970;BME280;59838;52.152;5.436;2022-12-31T02:44:36;100356.88;;;10.94;100.00
71970;BME280;59838;52.152;5.436;2022-12-31T02:47:16;100357.84;;;10.93;100.00
71970;BME280;59838;52.152;5.436;2022-12-31T02:55:29;100392.22;;;10.88;100.00
71970;BME280;59838;52.152;5.436;2022-12-31T03:00:29;100410.59;;;10.87;100.00
71970;BME280;59838;52.152;5.436;2022-12-31T03:03:16;100413.63;;;10.84;100.00
71970;BME280;59838;52.152;5.436;2022-12-31T03:05:44;100416.41;;;10.82;100.00
71970;BME280;59838;52.152;5.436;2022-12-31T03:08:20;100424.41;;;10.81;100.00
71970;BME280;59838;52.152;5.436;2022-12-31T03:10:46;100427.97;;;10.79;100.00
71970;BME280;59838;52.152;5.436;2022-12-31T03:13:13;100436.75;;;10.78;100.00
71970;BME280;59838;52.152;5.436;2022-12-31T03:15:39;100418.56;;;10.78;100.00
71970;BME280;59838;52.152;5.436;2022-12-31T03:18:11;100427.38;;;10.77;100.00
71970;BME280;59838;52.152;5.436;2022-12-31T03:23:31;100422.38;;;10.76;100.00
71970;BME280;59838;52.152;5.436;2022-12-31T03:25:59;100416.56;;;10.74;100.00
71970;BME280;59838;52.152;5.436;2022-12-31T03:28:27;100420.94;;;10.73;100.00
71970;BME280;59838;52.152;5.436;2022-12-31T03:30:59;100428.75;;;10.73;100.00
71970;BME280;59838;52.152;5.436;2022-12-31T03:33:35;100420.34;;;10.71;100.00
71970;BME280;59838;52.152;5.436;2022-12-31T03:36:04;100419.56;;;10.71;100.00
71970;BME280;59838;52.152;5.436;2022-12-31T03:38:31;100423.34;;;10.68;100.00
71970;BME280;59838;52.152;5.436;2022-12-31T03:40:57;100427.75;;;10.68;100.00
71970;BME280;59838;52.152;5.436;2022-12-31T03:43:24;100429.72;;;10.66;100.00
71970;BME280;59838;52.152;5.436;2022-12-31T03:45:51;100422.09;;;10.64;100.00
71970;BME280;59838;52.152;5.436;2022-12-31T03:48:20;100417.13;;;10.63;100.00
71970;BME280;59838;52.152;5.436;2022-12-31T03:50:48;100411.13;;;10.62;100.00
71970;BME280;59838;52.152;5.436;2022-12-31T03:53:14;100402.72;;;10.60;100.00
71970;BME280;59838;52.152;5.436;2022-12-31T03:55:41;100413.28;;;10.58;100.00
71970;BME280;59838;52.152;5.436;2022-12-31T03:58:07;100409.91;;;10.58;100.00
71970;BME280;59838;52.152;5.436;2022-12-31T04:00:34;100412.69;;;10.56;100.00
71970;BME280;59838;52.152;5.436;2022-12-31T04:03:01;100412.88;;;10.55;100.00
71970;BME280;59838;52.152;5.436;2022-12-31T04:05:28;100407.88;;;10.53;100.00
71970;BME280;59838;52.152;5.436;2022-12-31T04:07:54;100398.66;;;10.51;100.00
71970;BME280;59838;52.152;5.436;2022-12-31T04:10:21;100409.06;;;10.51;100.00
71970;BME280;59838;52.152;5.436;2022-12-31T04:12:48;100406.66;;;10.49;100.00
71970;BME280;59838;52.152;5.436;2022-12-31T04:15:19;100393.06;;;10.47;100.00
71970;BME280;59838;52.152;5.436;2022-12-31T04:17:46;100380.28;;;10.46;100.00
71970;BME280;59838;52.152;5.436;2022-12-31T04:20:14;100387.47;;;10.43;100.00
71970;BME280;59838;52.152;5.436;2022-12-31T04:22:40;100384.03;;;10.43;100.00
71970;BME280;59838;52.152;5.436;2022-12-31T04:25:07;100375.66;;;10.41;100.00
71970;BME280;59838;52.152;5.436;2022-12-31T04:27:41;100370.66;;;10.39;100.00
71970;BME280;59838;52.152;5.436;2022-12-31T04:30:10;100365.44;;;10.39;100.00
71970;BME280;59838;52.152;5.436;2022-12-31T04:32:37;100374.25;;;10.38;100.00
71970;BME280;59838;52.152;5.436;2022-12-31T04:35:04;100384.63;;;10.38;100.00
71970;BME280;59838;52.152;5.436;2022-12-31T04:37:30;100385.63;;;10.37;100.00
71970;BME280;59838;52.152;5.436;2022-12-31T04:39:57;100398.81;;;10.36;100.00
71970;BME280;59838;52.152;5.436;2022-12-31T04:42:30;100393.59;;;10.36;100.00
71970;BME280;59838;52.152;5.436;2022-12-31T04:44:57;100389.41;;;10.35;100.00
71970;BME280;59838;52.152;5.436;2022-12-31T04:47:23;100392.19;;;10.33;100.00
71970;BME280;59838;52.152;5.436;2022-12-31T04:49:50;100394.00;;;10.33;100.00
71970;BME280;59838;52.152;5.436;2022-12-31T04:52:16;100394.16;;;10.31;100.00
71970;BME280;59838;52.152;5.436;2022-12-31T04:54:43;100393.34;;;10.31;100.00
71970;BME280;59838;52.152;5.436;2022-12-31T04:57:09;100388.94;;;10.31;100.00
71970;BME280;59838;52.152;5.436;2022-12-31T04:59:36;100400.13;;;10.32;100.00
71970;BME280;59838;52.152;5.436;2022-12-31T05:02:02;100403.75;;;10.31;100.00
71970;BME280;59838;52.152;5.436;2022-12-31T05:04:29;100395.16;;;10.30;100.00
71970;BME280;59838;52.152;5.436;2022-12-31T05:06:55;100384.56;;;10.32;100.00
71970;BME280;59838;52.152;5.436;2022-12-31T05:09:22;100394.94;;;10.32;100.00
71970;BME280;59838;52.152;5.436;2022-12-31T05:11:49;100393.34;;;10.31;100.00
71970;BME280;59838;52.152;5.436;2022-12-31T05:14:15;100406.34;;;10.31;100.00
71970;BME280;59838;52.152;5.436;2022-12-31T05:16:42;100391.53;;;10.31;100.00
71970;BME280;59838;52.152;5.436;2022-12-31T05:19:09;100394.94;;;10.32;100.00
71970;BME280;59838;52.152;5.436;2022-12-31T05:21:35;100394.16;;;10.31;100.00
71970;BME280;59838;52.152;5.436;2022-12-31T05:24:02;100403.75;;;10.31;100.00
71970;BME280;59838;52.152;5.436;2022-12-31T05:26:29;100393.19;;;10.32;100.00
71970;BME280;59838;52.152;5.436;2022-12-31T05:28:55;100390.41;;;10.34;100.00
71970;BME280;59838;52.152;5.436;2022-12-31T05:31:22;100403.00;;;10.37;100.00
71970;BME280;59838;52.152;5.436;2022-12-31T05:33:48;100410.81;;;10.37;100.00
71970;BME280;59838;52.152;5.436;2022-12-31T05:36:15;100411.41;;;10.39;100.00
71970;BME280;59838;52.152;5.436;2022-12-31T05:38:42;100413.63;;;10.42;100.00
71970;BME280;59838;52.152;5.436;2022-12-31T05:41:09;100416.03;;;10.43;100.00
71970;BME280;59838;52.152;5.436;2022-12-31T05:43:37;100414.81;;;10.46;100.00
71970;BME280;59838;52.152;5.436;2022-12-31T05:46:05;100413.66;;;10.49;100.00
71970;BME280;59838;52.152;5.436;2022-12-31T05:48:32;100410.66;;;10.52;100.00
71970;BME280;59838;52.152;5.436;2022-12-31T05:50:59;100410.69;;;10.58;100.00
71970;BME280;59838;52.152;5.436;2022-12-31T05:53:25;100405.91;;;10.62;100.00
71970;BME280;59838;52.152;5.436;2022-12-31T05:55:52;100389.94;;;10.65;100.00
71970;BME280;59838;52.152;5.436;2022-12-31T05:58:18;100398.16;;;10.69;100.00
71970;BME280;59838;52.152;5.436;2022-12-31T06:00:45;100397.75;;;10.72;100.00
71970;BME280;59838;52.152;5.436;2022-12-31T06:03:11;100405.19;;;10.75;100.00
71970;BME280;59838;52.152;5.436;2022-12-31T06:05:42;100399.78;;;10.76;100.00
71970;BME280;59838;52.152;5.436;2022-12-31T06:08:10;100408.19;;;10.78;100.00
71970;BME280;59838;52.152;5.436;2022-12-31T06:10:36;100402.59;;;10.82;100.00
71970;BME280;59838;52.152;5.436;2022-12-31T06:13:03;100408.41;;;10.84;100.00
71970;BME280;59838;52.152;5.436;2022-12-31T06:15:30;100406.63;;;10.84;100.00
71970;BME280;59838;52.152;5.436;2022-12-31T06:17:57;100407.03;;;10.88;100.00
71970;BME280;59838;52.152;5.436;2022-12-31T06:20:23;100412.81;;;10.90;100.00
71970;BME280;59838;52.152;5.436;2022-12-31T06:22:50;100419.44;;;10.92;100.00
71970;BME280;59838;52.152;5.436;2022-12-31T06:25:16;100415.03;;;10.93;100.00
71970;BME280;59838;52.152;5.436;2022-12-31T06:27:43;100409.44;;;10.96;100.00
71970;BME280;59838;52.152;5.436;2022-12-31T06:30:10;100419.66;;;10.97;100.00
71970;BME280;59838;52.152;5.436;2022-12-31T06:32:37;100421.06;;;11.00;100.00
71970;BME280;59838;52.152;5.436;2022-12-31T06:35:05;100418.47;;;11.00;100.00
71970;BME280;59838;52.152;5.436;2022-12-31T06:37:31;100420.88;;;11.02;100.00
71970;BME280;59838;52.152;5.436;2022-12-31T06:39:58;100424.88;;;11.04;100.00
71970;BME280;59838;52.152;5.436;2022-12-31T06:42:29;100430.69;;;11.06;100.00
71970;BME280;59838;52.152;5.436;2022-12-31T06:44:57;100431.28;;;11.08;100.00
71970;BME280;59838;52.152;5.436;2022-12-31T06:47:24;100436.69;;;11.13;100.00
71970;BME280;59838;52.152;5.436;2022-12-31T06:49:51;100437.69;;;11.19;100.00
71970;BME280;59838;52.152;5.436;2022-12-31T06:52:18;100431.31;;;11.22;100.00
71970;BME280;59838;52.152;5.436;2022-12-31T06:54:45;100431.72;;;11.25;100.00
71970;BME280;59838;52.152;5.436;2022-12-31T06:57:12;100438.16;;;11.29;100.00
71970;BME280;59838;52.152;5.436;2022-12-31T06:59:38;100436.53;;;11.35;100.00
71970;BME280;59838;52.152;5.436;2022-12-31T07:02:24;100428.94;;;11.40;100.00
71970;BME280;59838;52.152;5.436;2022-12-31T07:05:23;100429.97;;;11.46;100.00
71970;BME280;59838;52.152;5.436;2022-12-31T07:13:21;100427.97;;;11.61;100.00
71970;BME280;59838;52.152;5.436;2022-12-31T07:19:11;100402.38;;;11.71;100.00
71970;BME280;59838;52.152;5.436;2022-12-31T07:21:43;100412.78;;;11.78;100.00
71970;BME280;59838;52.152;5.436;2022-12-31T07:24:10;100407.19;;;11.81;100.00
71970;BME280;59838;52.152;5.436;2022-12-31T07:26:59;100410.16;;;11.85;100.00
71970;BME280;59838;52.152;5.436;2022-12-31T07:29:53;100413.78;;;11.91;100.00
71970;BME280;59838;52.152;5.436;2022-12-31T07:32:36;100416.63;;;11.96;100.00
71970;BME280;59838;52.152;5.436;2022-12-31T07:35:17;100413.22;;;12.02;100.00
71970;BME280;59838;52.152;5.436;2022-12-31T07:40:34;100429.59;;;12.16;100.00
71970;BME280;59838;52.152;5.436;2022-12-31T07:43:13;100435.19;;;12.19;100.00
71970;BME280;59838;52.152;5.436;2022-12-31T07:46:20;100434.59;;;12.24;100.00
71970;BME280;59838;52.152;5.436;2022-12-31T07:48:48;100442.59;;;12.22;100.00
71970;BME280;59838;52.152;5.436;2022-12-31T07:51:15;100438.59;;;12.27;100.00
71970;BME280;59838;52.152;5.436;2022-12-31T07:53:41;100441.81;;;12.29;100.00
71970;BME280;59838;52.152;5.436;2022-12-31T07:56:08;100442.41;;;12.31;100.00
71970;BME280;59838;52.152;5.436;2022-12-31T07:58:49;100456.63;;;12.35;100.00
71970;BME280;59838;52.152;5.436;2022-12-31T08:07:01;100447.38;;;12.39;100.00
71970;BME280;59838;52.152;5.436;2022-12-31T08:12:44;100466.03;;;12.42;100.00
71970;BME280;59838;52.152;5.436;2022-12-31T08:15:13;100460.22;;;12.40;100.00
71970;BME280;59838;52.152;5.436;2022-12-31T08:17:42;100456.59;;;12.41;100.00
71970;BME280;59838;52.152;5.436;2022-12-31T08:20:14;100460.00;;;12.42;100.00
71970;BME280;59838;52.152;5.436;2022-12-31T08:31:18;100469.44;;;12.43;100.00
71970;BME280;59838;52.152;5.436;2022-12-31T08:33:57;100470.22;;;12.43;100.00
71970;BME280;59838;52.152;5.436;2022-12-31T08:39:07;100496.47;;;12.42;100.00
71970;BME280;59838;52.152;5.436;2022-12-31T08:41:40;100504.28;;;12.42;100.00
71970;BME280;59838;52.152;5.436;2022-12-31T08:44:45;100508.72;;;12.41;100.00
71970;BME280;59838;52.152;5.436;2022-12-31T08:47:25;100514.72;;;12.42;100.00
71970;BME280;59838;52.152;5.436;2022-12-31T08:50:03;100525.13;;;12.42;100.00
71970;BME280;59838;52.152;5.436;2022-12-31T08:52:29;100530.16;;;12.43;100.00
71970;BME280;59838;52.152;5.436;2022-12-31T08:54:56;100552.59;;;12.44;100.00
71970;BME280;59838;52.152;5.436;2022-12-31T08:57:32;100547.59;;;12.43;100.00
71970;BME280;59838;52.152;5.436;2022-12-31T09:02:57;100577.25;;;12.42;100.00
71970;BME280;59838;52.152;5.436;2022-12-31T09:05:52;100566.03;;;12.41;100.00
71970;BME280;59838;52.152;5.436;2022-12-31T09:18:49;100580.47;;;12.44;100.00
71970;BME280;59838;52.152;5.436;2022-12-31T09:21:15;100595.66;;;12.47;100.00
71970;BME280;59838;52.152;5.436;2022-12-31T09:23:42;100579.63;;;12.50;100.00
71970;BME280;59838;52.152;5.436;2022-12-31T09:29:00;100586.06;;;12.61;100.00
71970;BME280;59838;52.152;5.436;2022-12-31T09:34:10;100580.63;;;12.69;100.00
71970;BME280;59838;52.152;5.436;2022-12-31T09:36:45;100582.06;;;12.72;100.00
71970;BME280;59838;52.152;5.436;2022-12-31T09:50:46;100586.44;;;12.91;100.00
71970;BME280;59838;52.152;5.436;2022-12-31T09:53:25;100596.25;;;12.96;100.00
71970;BME280;59838;52.152;5.436;2022-12-31T09:56:11;100599.25;;;12.99;100.00
71970;BME280;59838;52.152;5.436;2022-12-31T09:59:02;100592.59;;;13.04;100.00
71970;BME280;59838;52.152;5.436;2022-12-31T10:01:35;100595.63;;;13.07;100.00
71970;BME280;59838;52.152;5.436;2022-12-31T10:04:23;100603.03;;;13.10;100.00
71970;BME280;59838;52.152;5.436;2022-12-31T10:10:15;100591.19;;;13.08;100.00
71970;BME280;59838;52.152;5.436;2022-12-31T10:13:00;100593.19;;;13.12;100.00
71970;BME280;59838;52.152;5.436;2022-12-31T10:19:34;100599.78;;;13.28;100.00
71970;BME280;59838;52.152;5.436;2022-12-31T10:27:25;100587.06;;;13.52;100.00
71970;BME280;59838;52.152;5.436;2022-12-31T10:29:59;100598.28;;;13.59;100.00
71970;BME280;59838;52.152;5.436;2022-12-31T10:38:01;100596.19;;;13.75;100.00
71970;BME280;59838;52.152;5.436;2022-12-31T10:41:17;100606.78;;;13.80;100.00
71970;BME280;59838;52.152;5.436;2022-12-31T10:44:22;100608.19;;;13.82;100.00
71970;BME280;59838;52.152;5.436;2022-12-31T10:50:26;100612.84;;;13.80;100.00
71970;BME280;59838;52.152;5.436;2022-12-31T10:55:58;100607.63;;;13.80;100.00
71970;BME280;59838;52.152;5.436;2022-12-31T10:59:03;100605.00;;;13.80;100.00
71970;BME280;59838;52.152;5.436;2022-12-31T11:02:01;100604.38;;;13.78;100.00
71970;BME280;59838;52.152;5.436;2022-12-31T11:15:49;100619.91;;;13.66;100.00
71970;BME280;59838;52.152;5.436;2022-12-31T11:30:04;100595.44;;;13.67;100.00
71970;BME280;59838;52.152;5.436;2022-12-31T11:32:46;100600.03;;;13.65;100.00
71970;BME280;59838;52.152;5.436;2022-12-31T11:35:40;100604.47;;;13.65;100.00
71970;BME280;59838;52.152;5.436;2022-12-31T11:38:27;100615.94;;;13.64;100.00
71970;BME280;59838;52.152;5.436;2022-12-31T11:41:07;100614.31;;;13.63;100.00
71970;BME280;59838;52.152;5.436;2022-12-31T11:43:43;100609.09;;;13.63;100.00
71970;BME280;59838;52.152;5.436;2022-12-31T11:46:24;100624.56;;;13.64;100.00
71970;BME280;59838;52.152;5.436;2022-12-31T11:52:24;100632.38;;;13.64;100.00
71970;BME280;59838;52.152;5.436;2022-12-31T11:57:40;100621.16;;;13.64;100.00
71970;BME280;59838;52.152;5.436;2022-12-31T12:00:15;100619.31;;;13.71;100.00
71970;BME280;59838;52.152;5.436;2022-12-31T12:03:08;100617.06;;;13.75;100.00
71970;BME280;59838;52.152;5.436;2022-12-31T12:05:38;100599.78;;;13.80;100.00
71970;BME280;59838;52.152;5.436;2022-12-31T12:08:05;100602.34;;;13.87;100.00
71970;BME280;59838;52.152;5.436;2022-12-31T12:13:20;100593.47;;;13.95;100.00
71970;BME280;59838;52.152;5.436;2022-12-31T12:15:49;100589.63;;;13.97;100.00
71970;BME280;59838;52.152;5.436;2022-12-31T12:18:38;100582.38;;;13.99;100.00
71970;BME280;59838;52.152;5.436;2022-12-31T12:21:20;100583.19;;;14.00;100.00
71970;BME280;59838;52.152;5.436;2022-12-31T12:24:02;100593.63;;;14.00;100.00
71970;BME280;59838;52.152;5.436;2022-12-31T12:26:41;100588.84;;;13.97;100.00
71970;BME280;59838;52.152;5.436;2022-12-31T12:34:35;100581.22;;;13.95;100.00
71970;BME280;59838;52.152;5.436;2022-12-31T12:37:02;100584.97;;;13.99;100.00
71970;BME280;59838;52.152;5.436;2022-12-31T12:39:31;100585.81;;;14.00;100.00
71970;BME280;59838;52.152;5.436;2022-12-31T12:42:06;100581.94;;;14.02;100.00
71970;BME280;59838;52.152;5.436;2022-12-31T12:44:33;100580.94;;;14.03;100.00
71970;BME280;59838;52.152;5.436;2022-12-31T12:47:02;100575.09;;;14.08;100.00
71970;BME280;59838;52.152;5.436;2022-12-31T12:49:30;100586.34;;;14.08;100.00
71970;BME280;59838;52.152;5.436;2022-12-31T12:52:14;100586.53;;;14.07;100.00
71970;BME280;59838;52.152;5.436;2022-12-31T12:57:33;100591.34;;;14.10;100.00
71970;BME280;59838;52.152;5.436;2022-12-31T13:00:16;100589.53;;;14.11;100.00
71970;BME280;59838;52.152;5.436;2022-12-31T13:05:47;100599.97;;;14.17;100.00
71970;BME280;59838;52.152;5.436;2022-12-31T13:08:40;100607.56;;;14.19;100.00
71970;BME280;59838;52.152;5.436;2022-12-31T13:11:51;100611.56;;;14.21;100.00
71970;BME280;59838;52.152;5.436;2022-12-31T13:15:02;100611.56;;;14.21;100.00
71970;BME280;59838;52.152;5.436;2022-12-31T13:20:55;100613.22;;;14.16;100.00
71970;BME280;59838;52.152;5.436;2022-12-31T13:28:59;100629.38;;;14.06;100.00
71970;BME280;59838;52.152;5.436;2022-12-31T13:31:35;100624.34;;;14.04;100.00
71970;BME280;59838;52.152;5.436;2022-12-31T13:34:06;100613.28;;;14.02;100.00
71970;BME280;59838;52.152;5.436;2022-12-31T13:36:39;100622.16;;;14.01;100.00
71970;BME280;59838;52.152;5.436;2022-12-31T13:39:38;100625.97;;;13.99;100.00
71970;BME280;59838;52.152;5.436;2022-12-31T13:42:19;100622.56;;;13.98;100.00
71970;BME280;59838;52.152;5.436;2022-12-31T13:44:54;100628.22;;;13.95;100.00
71970;BME280;59838;52.152;5.436;2022-12-31T13:47:32;100628.00;;;13.97;100.00
71970;BME280;59838;52.152;5.436;2022-12-31T13:50:27;100637.66;;;13.96;100.00
71970;BME280;59838;52.152;5.436;2022-12-31T13:53:00;100631.81;;;13.94;100.00
71970;BME280;59838;52.152;5.436;2022-12-31T13:55:39;100633.06;;;13.92;100.00
71970;BME280;59838;52.152;5.436;2022-12-31T13:58:32;100631.25;;;13.92;100.00
71970;BME280;59838;52.152;5.436;2022-12-31T14:04:28;100631.25;;;13.92;100.00
71970;BME280;59838;52.152;5.436;2022-12-31T14:06:52;100628.44;;;13.94;100.00
71970;BME280;59838;52.152;5.436;2022-12-31T14:09:29;100632.66;;;13.95;100.00
71970;BME280;59838;52.152;5.436;2022-12-31T14:15:25;100623.56;;;13.97;100.00
71970;BME280;59838;52.152;5.436;2022-12-31T14:20:28;100612.91;;;13.99;100.00
71970;BME280;59838;52.152;5.436;2022-12-31T14:25:56;100629.00;;;13.96;100.00
71970;BME280;59838;52.152;5.436;2022-12-31T14:28:44;100630.63;;;13.97;100.00
71970;BME280;59838;52.152;5.436;2022-12-31T14:34:07;100679.03;;;13.93;100.00
71970;BME280;59838;52.152;5.436;2022-12-31T14:39:33;100678.09;;;13.87;100.00
71970;BME280;59838;52.152;5.436;2022-12-31T14:42:21;100667.88;;;13.79;100.00
71970;BME280;59838;52.152;5.436;2022-12-31T14:45:16;100672.09;;;13.73;100.00
71970;BME280;59838;52.152;5.436;2022-12-31T14:47:58;100669.69;;;13.71;100.00
71970;BME280;59838;52.152;5.436;2022-12-31T14:50:29;100660.28;;;13.70;100.00
71970;BME280;59838;52.152;5.436;2022-12-31T14:55:28;100666.13;;;13.66;100.00
71970;BME280;59838;52.152;5.436;2022-12-31T14:57:57;100674.31;;;13.69;100.00
71970;BME280;59838;52.152;5.436;2022-12-31T15:03:41;100690.19;;;13.68;100.00
71970;BME280;59838;52.152;5.436;2022-12-31T15:22:41;100672.50;;;13.70;100.00
71970;BME280;59838;52.152;5.436;2022-12-31T15:25:29;100667.50;;;13.68;100.00
71970;BME280;59838;52.152;5.436;2022-12-31T15:28:06;100663.09;;;13.69;100.00
71970;BME280;59838;52.152;5.436;2022-12-31T15:30:45;100666.28;;;13.71;100.00
71970;BME280;59838;52.152;5.436;2022-12-31T15:33:21;100670.72;;;13.70;99.65
71970;BME280;59838;52.152;5.436;2022-12-31T15:35:53;100656.84;;;13.70;99.54
71970;BME280;59838;52.152;5.436;2022-12-31T15:38:37;100646.19;;;13.71;98.34
71970;BME280;59838;52.152;5.436;2022-12-31T15:43:57;100644.75;;;13.82;97.50
71970;BME280;59838;52.152;5.436;2022-12-31T15:46:29;100638.75;;;13.82;97.39
71970;BME280;59838;52.152;5.436;2022-12-31T15:49:02;100646.31;;;13.90;95.91
71970;BME280;59838;52.152;5.436;2022-12-31T15:51:43;100646.50;;;13.95;94.82
71970;BME280;59838;52.152;5.436;2022-12-31T15:54:34;100649.09;;;13.95;92.95
71970;BME280;59838;52.152;5.436;2022-12-31T15:57:02;100655.09;;;14.02;93.36
71970;BME280;59838;52.152;5.436;2022-12-31T15:59:34;100643.22;;;14.06;92.66
71970;BME280;59838;52.152;5.436;2022-12-31T16:02:03;100657.50;;;14.04;93.21
71970;BME280;59838;52.152;5.436;2022-12-31T16:04:30;100656.69;;;14.03;92.19
71970;BME280;59838;52.152;5.436;2022-12-31T16:07:04;100646.84;;;14.05;91.77
71970;BME280;59838;52.152;5.436;2022-12-31T16:09:32;100650.84;;;14.08;91.88
71970;BME280;59838;52.152;5.436;2022-12-31T16:12:01;100654.84;;;14.11;91.44
71970;BME280;59838;52.152;5.436;2022-12-31T16:14:35;100658.06;;;14.13;91.70
71970;BME280;59838;52.152;5.436;2022-12-31T16:17:04;100650.00;;;14.14;90.56
71970;BME280;59838;52.152;5.436;2022-12-31T16:19:34;100651.56;;;14.22;89.85
71970;BME280;59838;52.152;5.436;2022-12-31T16:22:07;100646.75;;;14.19;89.85
71970;BME280;59838;52.152;5.436;2022-12-31T16:24:34;100638.31;;;14.17;90.14
71970;BME280;59838;52.152;5.436;2022-12-31T16:27:22;100626.09;;;14.17;89.27
71970;BME280;59838;52.152;5.436;2022-12-31T16:29:59;100633.69;;;14.19;89.42